createdAt,value
2019-03-27T00:02:18.614Z,50.34
2019-03-27T00:04:48.566Z,50.43
2019-03-27T00:07:18.532Z,50.38
2019-03-27T00:09:48.457Z,50.61
2019-03-27T00:12:20.441Z,50.60
2019-03-27T00:14:50.448Z,50.60
2019-03-27T00:17:20.380Z,50.70
2019-03-27T00:19:50.874Z,50.70
2019-03-27T00:22:20.811Z,50.56
2019-03-27T00:24:50.757Z,50.82
2019-03-27T00:27:20.688Z,50.66
2019-03-27T00:29:50.622Z,50.55
2019-03-27T00:32:20.544Z,50.35
2019-03-27T00:34:50.782Z,50.52
2019-03-27T00:37:20.825Z,50.56
2019-03-27T00:39:50.781Z,50.56
2019-03-27T00:42:20.748Z,51.04
2019-03-27T00:44:50.706Z,51.04
2019-03-27T00:47:20.685Z,50.47
2019-03-27T00:49:50.825Z,50.70
2019-03-27T00:52:20.976Z,50.70
2019-03-27T00:54:50.916Z,50.72
2019-03-27T00:57:21.141Z,50.61
2019-03-27T00:59:51.062Z,50.61
2019-03-27T01:02:21.569Z,50.69
2019-03-27T01:04:51.549Z,50.69
2019-03-27T01:07:21.545Z,50.76
2019-03-27T01:09:51.483Z,50.69
2019-03-27T01:12:22.360Z,50.72
2019-03-27T01:14:53.505Z,50.50
2019-03-27T01:17:23.530Z,50.61
2019-03-27T01:19:53.437Z,50.68
2019-03-27T01:22:23.333Z,50.67
2019-03-27T01:24:53.878Z,50.69
2019-03-27T01:27:23.760Z,50.97
2019-03-27T01:29:54.509Z,51.05
2019-03-27T01:32:24.434Z,51.08
2019-03-27T01:34:54.787Z,50.96
2019-03-27T01:37:24.711Z,51.06
2019-03-27T01:39:54.617Z,51.02
2019-03-27T01:42:24.554Z,51.01
2019-03-27T01:44:54.489Z,51.02
2019-03-27T01:47:24.431Z,51.00
2019-03-27T01:49:54.343Z,50.98
2019-03-27T01:52:24.278Z,51.03
2019-03-27T01:54:54.609Z,50.87
2019-03-27T01:57:24.511Z,51.06
2019-03-27T01:59:54.411Z,50.98
2019-03-27T02:02:24.324Z,51.18
2019-03-27T02:04:54.756Z,51.17
2019-03-27T02:07:24.665Z,51.51
2019-03-27T02:09:54.574Z,51.43
2019-03-27T02:12:24.496Z,51.50
2019-03-27T02:14:54.598Z,51.08
2019-03-27T02:17:24.765Z,51.36
2019-03-27T02:19:54.982Z,51.44
2019-03-27T02:22:25.047Z,51.62
2019-03-27T02:24:54.953Z,51.55
2019-03-27T02:27:24.884Z,51.59
2019-03-27T02:29:54.797Z,52.08
2019-03-27T02:32:24.716Z,51.85
2019-03-27T02:34:55.073Z,51.62
2019-03-27T02:37:25.426Z,51.87
2019-03-27T02:39:55.870Z,51.85
2019-03-27T02:42:27.590Z,51.91
2019-03-27T02:44:57.960Z,52.25
2019-03-27T02:47:27.879Z,52.25
2019-03-27T02:49:57.807Z,52.36
2019-03-27T02:52:27.715Z,52.62
2019-03-27T02:54:58.149Z,52.51
2019-03-27T02:57:28.046Z,52.45
2019-03-27T02:59:58.007Z,52.41
2019-03-27T03:02:28.114Z,53.19
2019-03-27T03:04:58.547Z,53.19
2019-03-27T03:07:28.481Z,53.24
2019-03-27T03:09:58.393Z,52.98
2019-03-27T03:12:28.324Z,53.61
2019-03-27T03:14:58.224Z,53.61
2019-03-27T03:17:28.155Z,53.51
2019-03-27T03:19:58.082Z,53.92
2019-03-27T03:22:28.035Z,53.92
2019-03-27T03:24:57.963Z,53.62
2019-03-27T03:27:28.038Z,53.62
2019-03-27T03:29:57.967Z,54.02
2019-03-27T03:32:27.873Z,54.02
2019-03-27T03:34:57.923Z,54.62
2019-03-27T03:37:28.216Z,54.77
2019-03-27T03:39:58.492Z,54.66
2019-03-27T03:42:28.396Z,54.87
2019-03-27T03:44:58.325Z,55.03
2019-03-27T03:47:28.238Z,55.03
2019-03-27T03:49:58.741Z,55.18
2019-03-27T03:52:30.450Z,55.35
2019-03-27T03:55:00.495Z,55.35
2019-03-27T03:57:31.187Z,55.36
2019-03-27T04:00:03.490Z,55.19
2019-03-27T04:02:35.061Z,55.09
2019-03-27T04:05:06.181Z,55.61
2019-03-27T04:07:36.099Z,55.82
2019-03-27T04:10:08.599Z,55.96
2019-03-27T04:12:38.880Z,55.88
2019-03-27T04:15:09.028Z,56.00
2019-03-27T04:17:38.981Z,56.15
2019-03-27T04:20:09.765Z,56.00
2019-03-27T04:22:39.719Z,56.22
2019-03-27T04:25:09.755Z,56.25
2019-03-27T04:27:39.686Z,56.37
2019-03-27T04:30:10.084Z,56.28
2019-03-27T04:32:41.477Z,56.51
2019-03-27T04:35:11.524Z,56.51
2019-03-27T04:37:41.875Z,56.33
2019-03-27T04:40:11.881Z,56.29
2019-03-27T04:42:41.775Z,55.30
2019-03-27T04:45:12.343Z,55.30
2019-03-27T04:47:42.285Z,55.00
2019-03-27T04:50:12.319Z,55.00
2019-03-27T04:52:42.238Z,54.58
2019-03-27T04:55:12.265Z,54.24
2019-03-27T04:57:42.454Z,53.82
2019-03-27T05:00:12.608Z,53.01
2019-03-27T05:02:42.510Z,53.00
2019-03-27T05:05:12.627Z,52.30
2019-03-27T05:07:42.811Z,52.15
2019-03-27T05:10:12.981Z,51.37
2019-03-27T05:12:42.913Z,51.46
2019-03-27T05:15:12.934Z,51.26
2019-03-27T05:17:46.137Z,50.30
2019-03-27T05:20:14.915Z,49.86
2019-03-27T05:22:45.015Z,49.59
2019-03-27T05:25:15.118Z,49.77
2019-03-27T05:27:45.051Z,49.44
2019-03-27T05:30:17.934Z,49.32
2019-03-27T05:32:47.890Z,48.42
2019-03-27T05:35:17.822Z,48.24
2019-03-27T05:37:47.702Z,48.21
2019-03-27T05:40:17.692Z,47.53
2019-03-27T05:42:59.992Z,46.62
2019-03-27T05:45:19.282Z,46.14
2019-03-27T05:47:59.351Z,46.58
2019-03-27T05:50:21.194Z,46.57
2019-03-27T05:52:51.640Z,45.81
2019-03-27T05:55:21.547Z,45.79
2019-03-27T05:57:51.547Z,45.22
2019-03-27T06:00:21.591Z,45.49
2019-03-27T06:02:51.991Z,44.70
2019-03-27T06:05:21.915Z,44.92
2019-03-27T06:07:51.938Z,45.22
2019-03-27T06:10:22.022Z,44.29
2019-03-27T06:12:51.955Z,44.32
2019-03-27T06:15:22.017Z,43.84
2019-03-27T06:17:52.008Z,43.38
2019-03-27T06:20:21.961Z,43.10
2019-03-27T06:22:52.007Z,42.47
2019-03-27T06:25:21.968Z,42.40
2019-03-27T06:27:51.978Z,42.32
2019-03-27T06:30:22.035Z,41.32
2019-03-27T06:32:52.121Z,41.24
2019-03-27T06:35:22.206Z,41.32
2019-03-27T06:37:52.627Z,40.60
2019-03-27T06:40:22.613Z,40.78
2019-03-27T06:42:52.585Z,39.66
2019-03-27T06:45:22.675Z,40.32
2019-03-27T06:47:52.882Z,39.65
2019-03-27T06:50:22.911Z,39.26
2019-03-27T06:52:52.971Z,39.33
2019-03-27T06:55:23.061Z,38.87
2019-03-27T06:57:53.127Z,38.93
2019-03-27T07:00:35.635Z,39.52
2019-03-27T07:03:06.249Z,41.51
2019-03-27T07:05:37.782Z,41.27
2019-03-27T07:08:07.823Z,40.88
2019-03-27T07:10:37.963Z,41.02
2019-03-27T07:13:10.093Z,41.15
2019-03-27T07:15:40.153Z,41.33
2019-03-27T07:18:10.186Z,41.81
2019-03-27T07:20:41.329Z,42.23
2019-03-27T07:23:11.297Z,41.32
2019-03-27T07:25:41.510Z,41.78
2019-03-27T07:28:12.432Z,43.81
2019-03-27T07:30:42.369Z,42.71
2019-03-27T07:33:13.182Z,42.05
2019-03-27T07:35:44.457Z,41.48
2019-03-27T07:38:14.438Z,40.64
2019-03-27T07:40:44.433Z,40.91
2019-03-27T07:43:14.817Z,39.77
2019-03-27T07:45:44.891Z,39.45
2019-03-27T07:48:15.732Z,39.69
2019-03-27T07:50:45.667Z,39.79
2019-03-27T07:53:15.759Z,39.22
2019-03-27T07:55:45.716Z,39.11
2019-03-27T07:58:16.533Z,38.93
2019-03-27T08:00:46.471Z,38.24
2019-03-27T08:03:16.456Z,37.81
2019-03-27T08:05:46.882Z,37.55
2019-03-27T08:08:16.890Z,36.39
2019-03-27T08:10:46.920Z,36.10
2019-03-27T08:13:17.795Z,36.15
2019-03-27T08:15:48.001Z,36.41
2019-03-27T08:18:17.962Z,37.04
2019-03-27T08:20:48.132Z,36.41
2019-03-27T08:23:18.229Z,36.52
2019-03-27T08:25:48.227Z,35.39
2019-03-27T08:28:18.243Z,34.72
2019-03-27T08:30:48.860Z,35.01
2019-03-27T08:33:18.902Z,34.88
2019-03-27T08:35:48.961Z,35.31
2019-03-27T08:38:19.148Z,34.13
2019-03-27T08:40:49.049Z,33.22
2019-03-27T08:43:21.534Z,31.46
2019-03-27T08:45:50.749Z,30.72
2019-03-27T08:48:21.091Z,31.44
2019-03-27T08:50:51.042Z,30.15
2019-03-27T08:53:21.275Z,30.02
2019-03-27T08:55:51.280Z,29.92
2019-03-27T08:58:21.278Z,30.53
2019-03-27T09:00:52.990Z,31.09
2019-03-27T09:03:23.342Z,31.23
2019-03-27T09:05:53.531Z,31.01
2019-03-27T09:08:23.440Z,30.97
2019-03-27T09:10:53.944Z,31.02
2019-03-27T09:13:24.803Z,30.09
2019-03-27T09:15:54.819Z,29.71
2019-03-27T09:18:24.830Z,31.00
2019-03-27T09:20:54.815Z,30.14
2019-03-27T09:23:24.919Z,29.49
2019-03-27T09:25:54.869Z,29.27
2019-03-27T09:28:24.914Z,28.78
2019-03-27T09:30:55.134Z,28.60
2019-03-27T09:33:25.153Z,28.41
2019-03-27T09:35:55.792Z,28.25
2019-03-27T09:38:25.867Z,27.77
2019-03-27T09:40:56.403Z,27.12
2019-03-27T09:43:27.457Z,26.53
2019-03-27T09:45:57.572Z,26.86
2019-03-27T09:48:28.935Z,26.48
2019-03-27T09:50:59.803Z,26.54
2019-03-27T09:53:30.130Z,25.64
2019-03-27T09:56:00.203Z,25.04
2019-03-27T09:58:30.507Z,25.39
2019-03-27T10:01:05.727Z,24.93
2019-03-27T10:03:35.807Z,24.06
2019-03-27T10:06:05.874Z,24.85
2019-03-27T10:08:35.977Z,25.14
2019-03-27T10:11:06.084Z,24.88
2019-03-27T10:13:36.079Z,24.15
2019-03-27T10:16:06.322Z,24.67
2019-03-27T10:18:36.268Z,24.40
2019-03-27T10:21:06.784Z,24.86
2019-03-27T10:23:36.850Z,23.90
2019-03-27T10:26:07.450Z,23.58
2019-03-27T10:28:37.457Z,23.83
2019-03-27T10:31:07.376Z,23.80
2019-03-27T10:33:37.329Z,24.35
2019-03-27T10:36:07.313Z,24.79
2019-03-27T10:38:37.235Z,24.77
2019-03-27T10:41:07.623Z,23.84
2019-03-27T10:43:37.626Z,24.21
2019-03-27T10:46:08.476Z,24.39
2019-03-27T10:48:51.454Z,24.89
2019-03-27T10:51:10.333Z,24.28
2019-03-27T10:53:40.282Z,24.60
2019-03-27T10:56:10.220Z,25.19
2019-03-27T10:58:40.965Z,24.88
2019-03-27T11:01:11.344Z,24.84
2019-03-27T11:03:41.322Z,23.98
2019-03-27T11:06:12.977Z,24.24
2019-03-27T11:08:43.780Z,23.70
2019-03-27T11:11:14.158Z,24.23
2019-03-27T11:13:44.236Z,24.28
2019-03-27T11:16:14.185Z,24.64
2019-03-27T11:18:44.170Z,24.28
2019-03-27T11:21:14.153Z,24.53
2019-03-27T11:23:44.216Z,23.51
2019-03-27T11:26:14.232Z,24.58
2019-03-27T11:28:44.696Z,24.34
2019-03-27T11:31:16.444Z,24.41
2019-03-27T11:33:46.431Z,24.08
2019-03-27T11:36:16.394Z,24.14
2019-03-27T11:38:47.221Z,24.01
2019-03-27T11:41:17.131Z,24.51
2019-03-27T11:43:54.786Z,24.37
2019-03-27T11:46:18.821Z,24.29
2019-03-27T11:48:48.749Z,24.20
2019-03-27T11:51:18.739Z,23.87
2019-03-27T11:53:48.649Z,24.07
2019-03-27T11:56:19.508Z,24.11
2019-03-27T11:58:50.308Z,23.92
2019-03-27T12:01:20.316Z,23.04
2019-03-27T12:03:50.287Z,24.42
2019-03-27T12:06:20.349Z,23.61
2019-03-27T12:08:50.978Z,24.16
2019-03-27T12:11:21.157Z,23.58
2019-03-27T12:13:51.102Z,23.73
2019-03-27T12:16:21.055Z,23.35
2019-03-27T12:18:50.992Z,24.02
2019-03-27T12:21:21.377Z,23.08
2019-03-27T12:23:51.358Z,22.88
2019-03-27T12:26:21.296Z,24.18
2019-03-27T12:28:51.250Z,24.74
2019-03-27T12:31:21.176Z,24.94
2019-03-27T12:33:51.657Z,24.84
2019-03-27T12:36:22.088Z,24.51
2019-03-27T12:38:52.157Z,24.60
2019-03-27T12:41:22.170Z,24.29
2019-03-27T12:43:52.093Z,24.53
2019-03-27T12:46:22.014Z,24.37
2019-03-27T12:48:52.808Z,25.22
2019-03-27T12:51:22.838Z,25.03
2019-03-27T12:53:52.800Z,25.30
2019-03-27T12:56:23.255Z,25.32
2019-03-27T12:58:53.676Z,25.32
2019-03-27T13:01:24.026Z,25.05
2019-03-27T13:03:53.969Z,25.54
2019-03-27T13:06:23.925Z,26.50
2019-03-27T13:08:53.942Z,26.53
2019-03-27T13:11:23.909Z,26.74
2019-03-27T13:13:53.873Z,27.14
2019-03-27T13:16:23.833Z,26.91
2019-03-27T13:18:53.784Z,26.71
2019-03-27T13:21:26.633Z,27.24
2019-03-27T13:23:55.738Z,27.19
2019-03-27T13:26:26.050Z,27.66
2019-03-27T13:28:56.490Z,27.45
2019-03-27T13:31:26.438Z,27.48
2019-03-27T13:33:56.397Z,27.42
2019-03-27T13:36:26.394Z,27.04
2019-03-27T13:38:56.386Z,27.09
2019-03-27T13:41:26.375Z,27.40
2019-03-27T13:43:56.389Z,27.38
2019-03-27T13:46:26.341Z,27.23
2019-03-27T13:48:56.629Z,27.40
2019-03-27T13:51:39.989Z,27.40
2019-03-27T13:53:58.532Z,27.06
2019-03-27T13:56:28.526Z,27.11
2019-03-27T13:58:58.514Z,27.36
2019-03-27T14:01:28.622Z,27.30
2019-03-27T14:03:58.634Z,27.31
2019-03-27T14:06:28.634Z,27.38
2019-03-27T14:08:58.821Z,27.23
2019-03-27T14:11:28.948Z,27.32
2019-03-27T14:14:10.727Z,27.46
2019-03-27T14:16:31.262Z,26.83
2019-03-27T14:19:01.234Z,26.94
2019-03-27T14:21:32.121Z,27.01
2019-03-27T14:24:02.100Z,27.17
2019-03-27T14:26:44.385Z,27.13
2019-03-27T14:29:03.976Z,27.38
2019-03-27T14:31:34.879Z,27.19
2019-03-27T14:34:05.088Z,27.40
2019-03-27T14:36:35.112Z,27.28
2019-03-27T14:39:07.072Z,27.41
2019-03-27T14:41:37.363Z,27.48
2019-03-27T14:44:07.287Z,27.66
2019-03-27T14:46:37.289Z,27.61
2019-03-27T14:49:07.353Z,27.57
2019-03-27T14:51:37.389Z,27.67
2019-03-27T14:54:07.373Z,27.64
2019-03-27T14:56:37.358Z,27.74
2019-03-27T14:59:07.653Z,27.61
2019-03-27T15:01:37.802Z,27.65
2019-03-27T15:04:07.799Z,27.75
2019-03-27T15:06:37.774Z,27.86
2019-03-27T15:09:09.010Z,27.94
2019-03-27T15:11:39.052Z,27.96
2019-03-27T15:14:09.032Z,27.94
2019-03-27T15:16:39.001Z,27.93
2019-03-27T15:19:09.065Z,28.06
2019-03-27T15:21:39.312Z,28.14
2019-03-27T15:24:09.448Z,28.29
2019-03-27T15:26:39.606Z,28.27
2019-03-27T15:29:09.837Z,28.62
2019-03-27T15:31:39.791Z,28.73
2019-03-27T15:34:09.757Z,28.61
2019-03-27T15:36:40.604Z,28.84
2019-03-27T15:39:11.483Z,28.95
2019-03-27T15:41:41.623Z,28.98
2019-03-27T15:44:11.657Z,28.98
2019-03-27T15:46:42.005Z,29.01
2019-03-27T15:49:12.020Z,29.02
2019-03-27T15:51:42.057Z,29.13
2019-03-27T15:54:12.067Z,29.25
2019-03-27T15:56:42.214Z,29.36
2019-03-27T15:59:12.707Z,29.36
2019-03-27T16:01:42.712Z,29.57
2019-03-27T16:04:13.139Z,29.64
2019-03-27T16:06:43.180Z,29.74
2019-03-27T16:09:17.012Z,29.71
2019-03-27T16:11:47.074Z,29.78
2019-03-27T16:14:17.224Z,29.88
2019-03-27T16:17:06.831Z,30.08
2019-03-27T16:19:18.921Z,30.29
2019-03-27T16:21:48.950Z,30.57
2019-03-27T16:24:19.401Z,30.81
2019-03-27T16:27:03.507Z,30.95
2019-03-27T16:29:21.365Z,31.43
2019-03-27T16:31:51.614Z,31.63
2019-03-27T16:34:25.125Z,31.53
2019-03-27T16:36:54.310Z,31.62
2019-03-27T16:39:24.407Z,31.84
2019-03-27T16:41:54.453Z,31.74
2019-03-27T16:44:24.527Z,31.90
2019-03-27T16:46:54.782Z,32.05
2019-03-27T16:49:25.286Z,32.12
2019-03-27T16:51:56.598Z,32.10
2019-03-27T16:54:26.733Z,31.99
2019-03-27T16:56:56.755Z,32.08
2019-03-27T16:59:26.995Z,32.02
2019-03-27T17:01:57.037Z,32.06
2019-03-27T17:04:27.050Z,32.34
2019-03-27T17:06:57.056Z,32.29
2019-03-27T17:09:27.068Z,32.41
2019-03-27T17:11:57.106Z,32.54
2019-03-27T17:14:27.132Z,32.53
2019-03-27T17:16:57.130Z,32.55
2019-03-27T17:19:27.580Z,32.66
2019-03-27T17:21:57.633Z,32.78
2019-03-27T17:24:27.689Z,32.98
2019-03-27T17:26:57.847Z,33.12
2019-03-27T17:29:30.050Z,33.38
2019-03-27T17:32:00.100Z,33.70
2019-03-27T17:34:44.292Z,33.97
2019-03-27T17:37:14.388Z,34.07
2019-03-27T17:39:44.420Z,34.45
2019-03-27T17:42:14.412Z,34.64
2019-03-27T17:44:44.647Z,34.71
2019-03-27T17:47:16.117Z,34.85
2019-03-27T17:49:46.215Z,35.06
2019-03-27T17:52:17.082Z,35.21
2019-03-27T17:54:47.010Z,35.18
2019-03-27T17:57:17.461Z,35.51
2019-03-27T17:59:47.789Z,35.62
2019-03-27T18:02:17.946Z,35.64
2019-03-27T18:04:47.901Z,35.69
2019-03-27T18:07:18.122Z,35.79
2019-03-27T18:09:50.314Z,35.81
2019-03-27T18:12:20.356Z,35.75
2019-03-27T18:14:50.379Z,36.28
2019-03-27T18:17:21.116Z,36.54
2019-03-27T18:19:52.400Z,36.14
2019-03-27T18:22:22.669Z,36.23
2019-03-27T18:24:54.479Z,36.53
2019-03-27T18:27:25.737Z,36.36
2019-03-27T18:29:59.056Z,36.67
2019-03-27T18:32:30.985Z,36.88
2019-03-27T18:35:02.602Z,36.87
2019-03-27T18:37:33.302Z,36.93
2019-03-27T18:40:04.136Z,37.09
2019-03-27T18:42:34.500Z,37.21
2019-03-27T18:45:04.845Z,37.18
2019-03-27T18:47:34.965Z,37.01
2019-03-27T18:50:05.776Z,37.30
2019-03-27T18:52:35.850Z,37.58
2019-03-27T18:55:07.235Z,37.90
2019-03-27T18:57:37.659Z,37.79
2019-03-27T19:00:08.104Z,38.18
2019-03-27T19:02:38.109Z,38.06
2019-03-27T19:05:08.444Z,37.93
2019-03-27T19:07:38.434Z,37.93
2019-03-27T19:10:09.325Z,38.26
2019-03-27T19:12:39.340Z,38.17
2019-03-27T19:15:09.630Z,38.32
2019-03-27T19:17:39.822Z,38.10
2019-03-27T19:20:10.070Z,38.82
2019-03-27T19:22:41.036Z,38.31
2019-03-27T19:25:11.003Z,38.58
2019-03-27T19:27:40.985Z,38.52
2019-03-27T19:30:11.707Z,38.37
2019-03-27T19:32:41.781Z,38.46
2019-03-27T19:35:11.751Z,38.34
2019-03-27T19:37:42.549Z,38.60
2019-03-27T19:40:15.258Z,38.71
2019-03-27T19:42:45.283Z,38.96
2019-03-27T19:45:15.569Z,39.04
2019-03-27T19:47:47.121Z,39.39
2019-03-27T19:50:17.329Z,39.37
2019-03-27T19:52:47.813Z,38.84
2019-03-27T19:55:18.902Z,39.27
2019-03-27T19:57:48.927Z,39.13
2019-03-27T20:00:20.495Z,39.16
2019-03-27T20:02:50.711Z,39.48
2019-03-27T20:05:20.632Z,39.70
2019-03-27T20:07:50.565Z,39.66
2019-03-27T20:10:20.503Z,39.32
2019-03-27T20:12:50.511Z,39.61
2019-03-27T20:15:20.439Z,40.15
2019-03-27T20:17:50.351Z,40.12
2019-03-27T20:20:20.415Z,40.15
2019-03-27T20:22:50.324Z,40.09
2019-03-27T20:25:20.290Z,40.31
2019-03-27T20:27:51.284Z,40.49
2019-03-27T20:30:22.737Z,40.59
2019-03-27T20:32:53.220Z,40.56
2019-03-27T20:35:23.228Z,40.81
2019-03-27T20:37:53.206Z,40.88
2019-03-27T20:40:23.146Z,41.07
2019-03-27T20:42:53.089Z,41.32
2019-03-27T20:45:23.008Z,41.49
2019-03-27T20:47:52.907Z,41.57
2019-03-27T20:50:22.811Z,42.10
2019-03-27T20:52:52.722Z,42.00
2019-03-27T20:55:30.193Z,41.95
2019-03-27T20:57:54.296Z,42.30
2019-03-27T21:00:24.404Z,42.33
2019-03-27T21:02:54.563Z,42.40
2019-03-27T21:05:24.803Z,42.10
2019-03-27T21:07:54.985Z,42.17
2019-03-27T21:10:24.873Z,42.63
2019-03-27T21:12:54.746Z,42.49
2019-03-27T21:15:24.694Z,42.97
2019-03-27T21:17:54.665Z,42.96
2019-03-27T21:20:24.835Z,42.70
2019-03-27T21:22:54.816Z,42.85
2019-03-27T21:25:24.833Z,43.15
2019-03-27T21:27:54.806Z,42.68
2019-03-27T21:30:24.801Z,42.95
2019-03-27T21:32:54.809Z,43.19
2019-03-27T21:35:24.716Z,43.08
2019-03-27T21:37:55.146Z,43.62
2019-03-27T21:40:25.161Z,43.89
2019-03-27T21:42:55.296Z,44.41
2019-03-27T21:45:25.224Z,44.33
2019-03-27T21:47:55.214Z,44.27
2019-03-27T21:50:25.130Z,44.36
2019-03-27T21:53:00.750Z,44.47
2019-03-27T21:55:26.971Z,44.56
2019-03-27T21:57:57.256Z,44.75
2019-03-27T22:00:45.073Z,44.99
2019-03-27T22:03:15.209Z,45.07
2019-03-27T22:05:45.358Z,45.36
2019-03-27T22:08:15.308Z,45.46
2019-03-27T22:10:45.417Z,45.85
2019-03-27T22:13:15.305Z,45.94
2019-03-27T22:15:45.317Z,46.09
2019-03-27T22:18:15.299Z,46.44
2019-03-27T22:20:45.482Z,46.24
2019-03-27T22:23:15.443Z,46.31
2019-03-27T22:25:45.390Z,46.26
2019-03-27T22:28:15.359Z,46.63
2019-03-27T22:30:45.365Z,46.94
2019-03-27T22:33:15.336Z,46.79
2019-03-27T22:35:45.261Z,46.71
2019-03-27T22:38:15.222Z,46.74
2019-03-27T22:40:45.205Z,46.74
2019-03-27T22:43:15.401Z,46.74
2019-03-27T22:45:45.423Z,46.67
2019-03-27T22:48:15.292Z,46.97
2019-03-27T22:50:45.223Z,47.22
2019-03-27T22:53:15.231Z,47.18
2019-03-27T22:55:50.181Z,47.18
2019-03-27T22:58:17.904Z,46.78
2019-03-27T23:00:50.958Z,46.67
2019-03-27T23:03:21.163Z,46.56
2019-03-27T23:05:52.908Z,46.54
2019-03-27T23:08:23.221Z,46.79
2019-03-27T23:10:53.250Z,46.84
2019-03-27T23:13:23.287Z,46.98
2019-03-27T23:15:53.564Z,46.92
2019-03-27T23:18:23.502Z,46.93
2019-03-27T23:20:53.404Z,47.27
2019-03-27T23:23:23.323Z,47.13
2019-03-27T23:26:02.921Z,47.12
2019-03-27T23:28:24.934Z,47.06
2019-03-27T23:30:54.906Z,47.05
2019-03-27T23:33:24.922Z,46.94
2019-03-27T23:35:54.840Z,46.94
2019-03-27T23:38:24.774Z,46.92
2019-03-27T23:40:54.936Z,47.08
2019-03-27T23:43:24.881Z,47.09
2019-03-27T23:45:54.783Z,47.08
2019-03-27T23:48:24.803Z,46.90
2019-03-27T23:50:54.806Z,46.67
2019-03-27T23:53:24.677Z,46.67
2019-03-27T23:55:54.617Z,46.88
2019-03-27T23:58:24.621Z,46.99
